XRH weather

RAAF Base Richmond
Richmond, New South Wales, Australia

Public forecast

Using degrees Celsius for public forecast. Weather courtesy of forecast.io.

METAR (pilot weather report)

Retrieved 2019/04/24 01:30 UTC (20 minutes ago):

YSRI 240130Z AUTO 06007KT 9999 // NCD 23/18 Q1024 RF00.0/000.0

TAF (pilot weather forecast)

Forecast is more than 6 hours old.

Retrieved 2019/04/23 18:36 UTC (7 hours ago):

TAF YSRI 231730Z 2318/2418 VRB03KT 0500 FG BKN001 BECMG 2322/2324 03007KT 9999 SCT040 BECMG 2409/2411 VRB03KT 9999 FEW010 PROB30 2414/2418 0200 FG BKN002